sensor_id;sensor_type;location;lat;lon;timestamp;temperature;humidity
1680;DHT22;838;51.794;12.258;2022-11-20T00:00:55;1.60;14.80
1680;DHT22;838;51.794;12.258;2022-11-20T00:03:21;1.60;14.90
1680;DHT22;838;51.794;12.258;2022-11-20T00:05:47;1.70;14.30
1680;DHT22;838;51.794;12.258;2022-11-20T00:08:13;1.70;14.40
1680;DHT22;838;51.794;12.258;2022-11-20T00:10:41;1.80;14.30
1680;DHT22;838;51.794;12.258;2022-11-20T00:13:07;1.80;13.90
1680;DHT22;838;51.794;12.258;2022-11-20T00:15:34;1.60;14.40
1680;DHT22;838;51.794;12.258;2022-11-20T00:18:00;1.70;14.00
1680;DHT22;838;51.794;12.258;2022-11-20T00:20:26;1.90;13.20
1680;DHT22;838;51.794;12.258;2022-11-20T00:22:51;2.00;13.40
1680;DHT22;838;51.794;12.258;2022-11-20T00:25:18;1.90;12.60
1680;DHT22;838;51.794;12.258;2022-11-20T00:27:43;2.00;12.30
1680;DHT22;838;51.794;12.258;2022-11-20T00:30:09;2.10;12.40
1680;DHT22;838;51.794;12.258;2022-11-20T00:32:35;2.20;11.50
1680;DHT22;838;51.794;12.258;2022-11-20T00:35:01;2.10;11.10
1680;DHT22;838;51.794;12.258;2022-11-20T00:37:27;1.90;12.20
1680;DHT22;838;51.794;12.258;2022-11-20T00:39:52;1.80;12.90
1680;DHT22;838;51.794;12.258;2022-11-20T00:42:18;1.70;13.30
1680;DHT22;838;51.794;12.258;2022-11-20T00:44:44;1.70;13.30
1680;DHT22;838;51.794;12.258;2022-11-20T00:47:09;1.60;14.10
1680;DHT22;838;51.794;12.258;2022-11-20T00:49:35;1.50;13.80
1680;DHT22;838;51.794;12.258;2022-11-20T00:52:01;1.30;14.20
1680;DHT22;838;51.794;12.258;2022-11-20T00:54:27;1.10;14.70
1680;DHT22;838;51.794;12.258;2022-11-20T00:56:53;1.10;15.50
1680;DHT22;838;51.794;12.258;2022-11-20T00:59:18;1.10;15.80
1680;DHT22;838;51.794;12.258;2022-11-20T01:01:44;1.00;15.50
1680;DHT22;838;51.794;12.258;2022-11-20T01:04:10;1.10;15.60
1680;DHT22;838;51.794;12.258;2022-11-20T01:06:37;1.10;15.80
1680;DHT22;838;51.794;12.258;2022-11-20T01:09:10;1.00;16.10
1680;DHT22;838;51.794;12.258;2022-11-20T01:11:43;1.00;16.00
1680;DHT22;838;51.794;12.258;2022-11-20T01:14:15;0.90;16.60
1680;DHT22;838;51.794;12.258;2022-11-20T01:16:45;0.80;16.80
1680;DHT22;838;51.794;12.258;2022-11-20T01:19:15;0.70;17.30
1680;DHT22;838;51.794;12.258;2022-11-20T01:21:42;0.60;16.90
1680;DHT22;838;51.794;12.258;2022-11-20T01:24:12;0.40;17.60
1680;DHT22;838;51.794;12.258;2022-11-20T01:26:40;0.20;19.40
1680;DHT22;838;51.794;12.258;2022-11-20T01:29:08;0.10;19.40
1680;DHT22;838;51.794;12.258;2022-11-20T01:31:36;0.20;19.60
1680;DHT22;838;51.794;12.258;2022-11-20T01:34:05;0.30;19.20
1680;DHT22;838;51.794;12.258;2022-11-20T01:36:32;0.20;18.40
1680;DHT22;838;51.794;12.258;2022-11-20T01:39:00;0.20;18.30
1680;DHT22;838;51.794;12.258;2022-11-20T01:41:29;0.30;18.60
1680;DHT22;838;51.794;12.258;2022-11-20T01:44:16;0.10;18.00
1680;DHT22;838;51.794;12.258;2022-11-20T01:47:00;0.10;18.80
1680;DHT22;838;51.794;12.258;2022-11-20T01:49:37;0.00;18.40
1680;DHT22;838;51.794;12.258;2022-11-20T01:52:26;0.10;18.20
1680;DHT22;838;51.794;12.258;2022-11-20T01:55:02;0.00;18.20
1680;DHT22;838;51.794;12.258;2022-11-20T01:57:30;-0.20;19.30
1680;DHT22;838;51.794;12.258;2022-11-20T02:00:11;-0.20;19.10
1680;DHT22;838;51.794;12.258;2022-11-20T02:02:38;-0.20;19.20
1680;DHT22;838;51.794;12.258;2022-11-20T02:05:18;-0.10;19.10
1680;DHT22;838;51.794;12.258;2022-11-20T02:07:45;-0.10;19.00
1680;DHT22;838;51.794;12.258;2022-11-20T02:10:12;-0.20;18.40
1680;DHT22;838;51.794;12.258;2022-11-20T02:12:37;-0.40;19.30
1680;DHT22;838;51.794;12.258;2022-11-20T02:15:22;-0.60;19.80
1680;DHT22;838;51.794;12.258;2022-11-20T02:17:48;-0.90;21.00
1680;DHT22;838;51.794;12.258;2022-11-20T02:20:14;-0.90;21.90
1680;DHT22;838;51.794;12.258;2022-11-20T02:22:59;-0.90;22.50
1680;DHT22;838;51.794;12.258;2022-11-20T02:25:26;-0.50;21.50
1680;DHT22;838;51.794;12.258;2022-11-20T02:27:53;-0.30;19.80
1680;DHT22;838;51.794;12.258;2022-11-20T02:30:18;-0.20;19.20
1680;DHT22;838;51.794;12.258;2022-11-20T02:32:44;-0.20;18.70
1680;DHT22;838;51.794;12.258;2022-11-20T02:37:58;-0.50;19.80
1680;DHT22;838;51.794;12.258;2022-11-20T02:40:25;-0.50;19.90
1680;DHT22;838;51.794;12.258;2022-11-20T02:42:55;-0.40;19.10
1680;DHT22;838;51.794;12.258;2022-11-20T02:47:48;-0.10;16.90
1680;DHT22;838;51.794;12.258;2022-11-20T02:50:14;-0.40;17.70
1680;DHT22;838;51.794;12.258;2022-11-20T02:52:39;-0.50;18.40
1680;DHT22;838;51.794;12.258;2022-11-20T02:55:06;-0.90;19.40
1680;DHT22;838;51.794;12.258;2022-11-20T02:57:31;-1.20;20.80
1680;DHT22;838;51.794;12.258;2022-11-20T02:59:57;-1.40;23.40
1680;DHT22;838;51.794;12.258;2022-11-20T03:02:23;-1.40;23.30
1680;DHT22;838;51.794;12.258;2022-11-20T03:04:48;-1.40;23.30
1680;DHT22;838;51.794;12.258;2022-11-20T03:07:14;-1.30;23.10
1680;DHT22;838;51.794;12.258;2022-11-20T03:09:40;-1.50;23.50
1680;DHT22;838;51.794;12.258;2022-11-20T03:12:06;-1.50;24.70
1680;DHT22;838;51.794;12.258;2022-11-20T03:14:32;-1.50;24.30
1680;DHT22;838;51.794;12.258;2022-11-20T03:16:58;-1.60;24.70
1680;DHT22;838;51.794;12.258;2022-11-20T03:19:23;-1.80;25.00
1680;DHT22;838;51.794;12.258;2022-11-20T03:21:49;-2.00;26.10
1680;DHT22;838;51.794;12.258;2022-11-20T03:24:15;-2.20;28.00
1680;DHT22;838;51.794;12.258;2022-11-20T03:26:41;-2.40;28.90
1680;DHT22;838;51.794;12.258;2022-11-20T03:29:07;-2.60;30.30
1680;DHT22;838;51.794;12.258;2022-11-20T03:31:38;-2.70;32.20
1680;DHT22;838;51.794;12.258;2022-11-20T03:34:09;-2.70;33.20
1680;DHT22;838;51.794;12.258;2022-11-20T03:36:40;-2.80;33.70
1680;DHT22;838;51.794;12.258;2022-11-20T03:39:06;-2.80;34.90
1680;DHT22;838;51.794;12.258;2022-11-20T03:41:36;-2.80;34.90
1680;DHT22;838;51.794;12.258;2022-11-20T03:44:08;-2.80;35.00
1680;DHT22;838;51.794;12.258;2022-11-20T03:46:34;-2.80;35.40
1680;DHT22;838;51.794;12.258;2022-11-20T03:49:00;-2.80;36.00
1680;DHT22;838;51.794;12.258;2022-11-20T03:51:28;-2.70;35.60
1680;DHT22;838;51.794;12.258;2022-11-20T03:53:57;-2.70;35.10
1680;DHT22;838;51.794;12.258;2022-11-20T03:56:25;-2.80;35.50
1680;DHT22;838;51.794;12.258;2022-11-20T03:58:51;-2.80;34.80
1680;DHT22;838;51.794;12.258;2022-11-20T04:01:28;-2.60;35.80
1680;DHT22;838;51.794;12.258;2022-11-20T04:03:56;-2.60;34.40
1680;DHT22;838;51.794;12.258;2022-11-20T04:06:25;-2.50;35.30
1680;DHT22;838;51.794;12.258;2022-11-20T04:08:51;-2.50;33.90
1680;DHT22;838;51.794;12.258;2022-11-20T04:11:19;-2.50;33.90
1680;DHT22;838;51.794;12.258;2022-11-20T04:13:52;-2.30;32.10
1680;DHT22;838;51.794;12.258;2022-11-20T04:16:19;-2.30;30.90
1680;DHT22;838;51.794;12.258;2022-11-20T04:18:46;-2.40;30.80
1680;DHT22;838;51.794;12.258;2022-11-20T04:21:12;-2.50;31.10
1680;DHT22;838;51.794;12.258;2022-11-20T04:23:38;-2.50;31.90
1680;DHT22;838;51.794;12.258;2022-11-20T04:26:05;-2.60;32.30
1680;DHT22;838;51.794;12.258;2022-11-20T04:28:32;-2.60;33.40
1680;DHT22;838;51.794;12.258;2022-11-20T04:31:13;-2.60;34.00
1680;DHT22;838;51.794;12.258;2022-11-20T04:33:39;-2.60;32.80
1680;DHT22;838;51.794;12.258;2022-11-20T04:36:06;-2.70;33.00
1680;DHT22;838;51.794;12.258;2022-11-20T04:38:33;-2.60;33.40
1680;DHT22;838;51.794;12.258;2022-11-20T04:41:00;-2.80;33.60
1680;DHT22;838;51.794;12.258;2022-11-20T04:43:26;-2.80;34.30
1680;DHT22;838;51.794;12.258;2022-11-20T04:45:53;-2.80;34.90
1680;DHT22;838;51.794;12.258;2022-11-20T04:48:19;-2.80;35.00
1680;DHT22;838;51.794;12.258;2022-11-20T04:50:44;-2.90;35.10
1680;DHT22;838;51.794;12.258;2022-11-20T04:53:10;-2.90;35.90
1680;DHT22;838;51.794;12.258;2022-11-20T04:55:36;-3.10;37.10
1680;DHT22;838;51.794;12.258;2022-11-20T04:58:02;-3.10;37.70
1680;DHT22;838;51.794;12.258;2022-11-20T05:00:27;-3.00;38.70
1680;DHT22;838;51.794;12.258;2022-11-20T05:02:53;-3.00;38.40
1680;DHT22;838;51.794;12.258;2022-11-20T05:05:19;-2.90;37.10
1680;DHT22;838;51.794;12.258;2022-11-20T05:07:44;-3.00;36.10
1680;DHT22;838;51.794;12.258;2022-11-20T05:10:10;-3.00;36.90
1680;DHT22;838;51.794;12.258;2022-11-20T05:12:36;-3.20;37.60
1680;DHT22;838;51.794;12.258;2022-11-20T05:15:02;-3.10;38.20
1680;DHT22;838;51.794;12.258;2022-11-20T05:17:27;-3.00;37.30
1680;DHT22;838;51.794;12.258;2022-11-20T05:19:53;-3.10;37.30
1680;DHT22;838;51.794;12.258;2022-11-20T05:22:19;-3.00;37.00
1680;DHT22;838;51.794;12.258;2022-11-20T05:24:44;-2.80;36.90
1680;DHT22;838;51.794;12.258;2022-11-20T05:27:10;-3.10;36.60
1680;DHT22;838;51.794;12.258;2022-11-20T05:29:36;-3.00;36.70
1680;DHT22;838;51.794;12.258;2022-11-20T05:32:01;-3.20;36.10
1680;DHT22;838;51.794;12.258;2022-11-20T05:34:27;-3.10;37.50
1680;DHT22;838;51.794;12.258;2022-11-20T05:36:53;-3.20;38.70
1680;DHT22;838;51.794;12.258;2022-11-20T05:39:19;-3.20;38.10
1680;DHT22;838;51.794;12.258;2022-11-20T05:41:44;-3.20;38.10
1680;DHT22;838;51.794;12.258;2022-11-20T05:44:11;-3.10;38.10
1680;DHT22;838;51.794;12.258;2022-11-20T05:46:36;-3.20;37.30
1680;DHT22;838;51.794;12.258;2022-11-20T05:49:02;-3.40;38.80
1680;DHT22;838;51.794;12.258;2022-11-20T05:51:28;-3.50;40.40
1680;DHT22;838;51.794;12.258;2022-11-20T05:53:56;-3.50;40.90
1680;DHT22;838;51.794;12.258;2022-11-20T05:56:22;-3.50;39.80
1680;DHT22;838;51.794;12.258;2022-11-20T05:58:48;-3.60;40.90
1680;DHT22;838;51.794;12.258;2022-11-20T06:03:41;-3.70;41.60
1680;DHT22;838;51.794;12.258;2022-11-20T06:06:15;-3.70;42.00
1680;DHT22;838;51.794;12.258;2022-11-20T06:08:41;-3.60;43.20
1680;DHT22;838;51.794;12.258;2022-11-20T06:11:09;-3.70;44.30
1680;DHT22;838;51.794;12.258;2022-11-20T06:13:35;-3.70;44.30
1680;DHT22;838;51.794;12.258;2022-11-20T06:16:01;-3.70;45.30
1680;DHT22;838;51.794;12.258;2022-11-20T06:18:28;-3.60;43.70
1680;DHT22;838;51.794;12.258;2022-11-20T06:21:05;-3.50;44.00
1680;DHT22;838;51.794;12.258;2022-11-20T06:23:32;-3.30;44.20
1680;DHT22;838;51.794;12.258;2022-11-20T06:26:05;-3.20;43.00
1680;DHT22;838;51.794;12.258;2022-11-20T06:28:31;-3.10;40.70
1680;DHT22;838;51.794;12.258;2022-11-20T06:30:57;-3.20;39.50
1680;DHT22;838;51.794;12.258;2022-11-20T06:33:23;-3.30;39.90
1680;DHT22;838;51.794;12.258;2022-11-20T06:35:49;-3.30;40.60
1680;DHT22;838;51.794;12.258;2022-11-20T06:38:15;-3.20;40.00
1680;DHT22;838;51.794;12.258;2022-11-20T06:40:41;-3.30;38.20
1680;DHT22;838;51.794;12.258;2022-11-20T06:43:09;-3.50;39.80
1680;DHT22;838;51.794;12.258;2022-11-20T06:45:35;-3.50;40.70
1680;DHT22;838;51.794;12.258;2022-11-20T06:48:01;-3.40;40.90
1680;DHT22;838;51.794;12.258;2022-11-20T06:50:27;-3.40;41.40
1680;DHT22;838;51.794;12.258;2022-11-20T06:52:52;-3.40;41.40
1680;DHT22;838;51.794;12.258;2022-11-20T06:55:18;-3.40;41.10
1680;DHT22;838;51.794;12.258;2022-11-20T06:57:44;-3.20;41.60
1680;DHT22;838;51.794;12.258;2022-11-20T07:00:10;-3.00;40.40
1680;DHT22;838;51.794;12.258;2022-11-20T07:02:36;-2.90;40.30
1680;DHT22;838;51.794;12.258;2022-11-20T07:05:02;-2.50;38.80
1680;DHT22;838;51.794;12.258;2022-11-20T07:07:27;-2.50;37.80
1680;DHT22;838;51.794;12.258;2022-11-20T07:09:53;-2.30;37.20
1680;DHT22;838;51.794;12.258;2022-11-20T07:12:19;-2.00;36.70
1680;DHT22;838;51.794;12.258;2022-11-20T07:14:44;-1.70;37.20
1680;DHT22;838;51.794;12.258;2022-11-20T07:17:11;-1.40;36.20
1680;DHT22;838;51.794;12.258;2022-11-20T07:19:37;-1.20;31.00
1680;DHT22;838;51.794;12.258;2022-11-20T07:22:03;-1.10;28.90
1680;DHT22;838;51.794;12.258;2022-11-20T07:24:28;-0.90;29.10
1680;DHT22;838;51.794;12.258;2022-11-20T07:26:54;-0.60;27.40
1680;DHT22;838;51.794;12.258;2022-11-20T07:29:20;-0.30;25.30
1680;DHT22;838;51.794;12.258;2022-11-20T07:31:45;-0.70;23.30
1680;DHT22;838;51.794;12.258;2022-11-20T07:34:11;-1.20;24.10
1680;DHT22;838;51.794;12.258;2022-11-20T07:36:37;-1.50;26.20
1680;DHT22;838;51.794;12.258;2022-11-20T07:39:03;-1.60;28.10
1680;DHT22;838;51.794;12.258;2022-11-20T07:41:28;-2.00;30.20
1680;DHT22;838;51.794;12.258;2022-11-20T07:43:54;-1.70;32.40
1680;DHT22;838;51.794;12.258;2022-11-20T07:46:20;-1.30;32.10
1680;DHT22;838;51.794;12.258;2022-11-20T07:48:46;-0.90;27.30
1680;DHT22;838;51.794;12.258;2022-11-20T07:51:11;-0.80;25.90
1680;DHT22;838;51.794;12.258;2022-11-20T07:53:37;-0.90;26.40
1680;DHT22;838;51.794;12.258;2022-11-20T07:56:03;-0.80;25.60
1680;DHT22;838;51.794;12.258;2022-11-20T07:58:30;-0.70;25.20
1680;DHT22;838;51.794;12.258;2022-11-20T08:00:56;-0.70;25.00
1680;DHT22;838;51.794;12.258;2022-11-20T08:03:21;-0.90;24.70
1680;DHT22;838;51.794;12.258;2022-11-20T08:05:47;-1.00;26.20
1680;DHT22;838;51.794;12.258;2022-11-20T08:08:13;-1.10;26.50
1680;DHT22;838;51.794;12.258;2022-11-20T08:10:38;-1.40;27.70
1680;DHT22;838;51.794;12.258;2022-11-20T08:13:04;-1.50;28.90
1680;DHT22;838;51.794;12.258;2022-11-20T08:15:50;-1.60;30.60
1680;DHT22;838;51.794;12.258;2022-11-20T08:18:16;-1.30;30.90
1680;DHT22;838;51.794;12.258;2022-11-20T08:20:43;-1.00;31.10
1680;DHT22;838;51.794;12.258;2022-11-20T08:23:09;-0.60;29.40
1680;DHT22;838;51.794;12.258;2022-11-20T08:25:38;-0.20;26.60
1680;DHT22;838;51.794;12.258;2022-11-20T08:28:06;0.10;24.70
1680;DHT22;838;51.794;12.258;2022-11-20T08:30:32;0.50;23.00
1680;DHT22;838;51.794;12.258;2022-11-20T08:33:06;0.90;20.10
1680;DHT22;838;51.794;12.258;2022-11-20T08:35:35;0.90;18.90
1680;DHT22;838;51.794;12.258;2022-11-20T08:38:05;1.30;20.00
1680;DHT22;838;51.794;12.258;2022-11-20T08:40:31;1.80;16.70
1680;DHT22;838;51.794;12.258;2022-11-20T08:42:57;1.90;15.40
1680;DHT22;838;51.794;12.258;2022-11-20T08:45:23;1.90;13.60
1680;DHT22;838;51.794;12.258;2022-11-20T08:47:49;1.90;15.20
1680;DHT22;838;51.794;12.258;2022-11-20T08:50:16;1.80;15.10
1680;DHT22;838;51.794;12.258;2022-11-20T08:52:42;1.90;14.40
1680;DHT22;838;51.794;12.258;2022-11-20T08:55:08;1.80;14.00
1680;DHT22;838;51.794;12.258;2022-11-20T08:57:35;1.60;14.80
1680;DHT22;838;51.794;12.258;2022-11-20T09:00:02;1.60;15.70
1680;DHT22;838;51.794;12.258;2022-11-20T09:02:28;1.40;16.20
1680;DHT22;838;51.794;12.258;2022-11-20T09:04:54;1.10;16.40
1680;DHT22;838;51.794;12.258;2022-11-20T09:07:20;0.80;18.00
1680;DHT22;838;51.794;12.258;2022-11-20T09:09:46;0.70;18.10
1680;DHT22;838;51.794;12.258;2022-11-20T09:12:11;0.60;19.70
1680;DHT22;838;51.794;12.258;2022-11-20T09:14:37;0.50;20.90
1680;DHT22;838;51.794;12.258;2022-11-20T09:17:03;0.60;21.10
1680;DHT22;838;51.794;12.258;2022-11-20T09:19:28;0.50;19.90
1680;DHT22;838;51.794;12.258;2022-11-20T09:21:54;0.50;20.80
1680;DHT22;838;51.794;12.258;2022-11-20T09:24:20;0.70;20.40
1680;DHT22;838;51.794;12.258;2022-11-20T09:26:46;0.90;20.90
1680;DHT22;838;51.794;12.258;2022-11-20T09:29:12;1.00;19.80
1680;DHT22;838;51.794;12.258;2022-11-20T09:31:38;1.10;19.50
1680;DHT22;838;51.794;12.258;2022-11-20T09:34:04;1.20;17.50
1680;DHT22;838;51.794;12.258;2022-11-20T09:36:29;1.30;17.40
1680;DHT22;838;51.794;12.258;2022-11-20T09:38:55;1.30;16.40
1680;DHT22;838;51.794;12.258;2022-11-20T09:50:28;1.40;15.30
1680;DHT22;838;51.794;12.258;2022-11-20T09:53:11;1.20;15.60
1680;DHT22;838;51.794;12.258;2022-11-20T09:55:38;1.20;16.70
1680;DHT22;838;51.794;12.258;2022-11-20T09:58:13;1.00;15.60
1680;DHT22;838;51.794;12.258;2022-11-20T10:00:41;1.00;16.90
1680;DHT22;838;51.794;12.258;2022-11-20T10:06:13;1.30;17.30
1680;DHT22;838;51.794;12.258;2022-11-20T10:08:48;1.60;16.40
1680;DHT22;838;51.794;12.258;2022-11-20T10:19:47;2.50;11.60
1680;DHT22;838;51.794;12.258;2022-11-20T10:32:38;3.10;4.40
1680;DHT22;838;51.794;12.258;2022-11-20T10:37:44;2.80;6.30
1680;DHT22;838;51.794;12.258;2022-11-20T10:40:38;2.70;7.00
1680;DHT22;838;51.794;12.258;2022-11-20T10:43:33;2.90;7.80
1680;DHT22;838;51.794;12.258;2022-11-20T10:46:08;3.30;6.30
1680;DHT22;838;51.794;12.258;2022-11-20T10:48:36;3.50;5.80
1680;DHT22;838;51.794;12.258;2022-11-20T10:56:47;3.20;4.50
1680;DHT22;838;51.794;12.258;2022-11-20T11:02:23;2.90;5.80
1680;DHT22;838;51.794;12.258;2022-11-20T11:04:53;3.10;6.10
1680;DHT22;838;51.794;12.258;2022-11-20T11:09:50;3.60;5.70
1680;DHT22;838;51.794;12.258;2022-11-20T11:12:18;3.80;4.80
1680;DHT22;838;51.794;12.258;2022-11-20T11:20:14;3.90;4.20
1680;DHT22;838;51.794;12.258;2022-11-20T11:22:56;4.00;3.90
1680;DHT22;838;51.794;12.258;2022-11-20T11:25:26;4.20;3.30
1680;DHT22;838;51.794;12.258;2022-11-20T11:27:54;4.10;3.70
1680;DHT22;838;51.794;12.258;2022-11-20T11:30:22;4.40;3.40
1680;DHT22;838;51.794;12.258;2022-11-20T11:32:49;4.60;2.70
1680;DHT22;838;51.794;12.258;2022-11-20T11:35:27;4.60;1.90
1680;DHT22;838;51.794;12.258;2022-11-20T11:38:01;4.60;2.40
1680;DHT22;838;51.794;12.258;2022-11-20T11:40:29;4.50;2.70
1680;DHT22;838;51.794;12.258;2022-11-20T11:42:59;4.60;3.30
1680;DHT22;838;51.794;12.258;2022-11-20T11:45:25;4.70;2.80
1680;DHT22;838;51.794;12.258;2022-11-20T11:47:53;4.70;3.00
1680;DHT22;838;51.794;12.258;2022-11-20T11:50:22;4.80;2.80
1680;DHT22;838;51.794;12.258;2022-11-20T11:58:11;4.90;2.50
1680;DHT22;838;51.794;12.258;2022-11-20T12:00:45;4.50;3.00
1680;DHT22;838;51.794;12.258;2022-11-20T12:03:18;4.50;4.40
1680;DHT22;838;51.794;12.258;2022-11-20T12:06:10;4.70;4.60
1680;DHT22;838;51.794;12.258;2022-11-20T12:08:53;4.90;3.80
1680;DHT22;838;51.794;12.258;2022-11-20T12:14:23;4.90;1.90
1680;DHT22;838;51.794;12.258;2022-11-20T12:16:52;5.10;2.10
1680;DHT22;838;51.794;12.258;2022-11-20T12:19:21;5.20;1.00
1680;DHT22;838;51.794;12.258;2022-11-20T12:22:07;5.20;1.50
1680;DHT22;838;51.794;12.258;2022-11-20T12:30:22;5.80;1.10
1680;DHT22;838;51.794;12.258;2022-11-20T12:47:23;6.20;1.00
1680;DHT22;838;51.794;12.258;2022-11-20T12:50:15;6.20;1.00
1680;DHT22;838;51.794;12.258;2022-11-20T12:56:17;5.90;1.00
1680;DHT22;838;51.794;12.258;2022-11-20T12:59:12;5.90;1.00
1680;DHT22;838;51.794;12.258;2022-11-20T13:07:13;5.40;1.70
1680;DHT22;838;51.794;12.258;2022-11-20T13:09:48;5.30;1.10
1680;DHT22;838;51.794;12.258;2022-11-20T13:12:32;5.20;1.80
1680;DHT22;838;51.794;12.258;2022-11-20T13:15:33;5.10;1.40
1680;DHT22;838;51.794;12.258;2022-11-20T13:18:09;5.10;1.80
1680;DHT22;838;51.794;12.258;2022-11-20T13:20:36;5.10;1.70
1680;DHT22;838;51.794;12.258;2022-11-20T13:23:06;5.30;1.50
1680;DHT22;838;51.794;12.258;2022-11-20T13:25:39;5.40;1.00
1680;DHT22;838;51.794;12.258;2022-11-20T13:28:29;5.50;1.00
1680;DHT22;838;51.794;12.258;2022-11-20T13:30:56;5.70;1.00
1680;DHT22;838;51.794;12.258;2022-11-20T13:33:38;5.90;1.00
1680;DHT22;838;51.794;12.258;2022-11-20T13:36:06;5.80;1.00
1680;DHT22;838;51.794;12.258;2022-11-20T13:38:49;5.80;1.00
1680;DHT22;838;51.794;12.258;2022-11-20T13:44:15;6.10;1.00
1680;DHT22;838;51.794;12.258;2022-11-20T13:46:47;6.00;1.00
1680;DHT22;838;51.794;12.258;2022-11-20T13:49:37;5.90;1.00
1680;DHT22;838;51.794;12.258;2022-11-20T13:52:44;5.80;1.00
1680;DHT22;838;51.794;12.258;2022-11-20T13:55:37;5.50;1.00
1680;DHT22;838;51.794;12.258;2022-11-20T13:58:24;5.40;1.00
1680;DHT22;838;51.794;12.258;2022-11-20T14:01:20;5.60;1.00
1680;DHT22;838;51.794;12.258;2022-11-20T14:03:50;5.50;1.00
1680;DHT22;838;51.794;12.258;2022-11-20T14:06:39;5.20;1.20
1680;DHT22;838;51.794;12.258;2022-11-20T14:09:24;5.10;1.00
1680;DHT22;838;51.794;12.258;2022-11-20T14:11:50;5.10;1.50
1680;DHT22;838;51.794;12.258;2022-11-20T14:14:19;5.10;1.80
1680;DHT22;838;51.794;12.258;2022-11-20T14:16:47;4.90;2.30
1680;DHT22;838;51.794;12.258;2022-11-20T14:21:53;4.80;2.70
1680;DHT22;838;51.794;12.258;2022-11-20T14:24:21;4.80;2.90
1680;DHT22;838;51.794;12.258;2022-11-20T14:26:47;4.60;3.90
1680;DHT22;838;51.794;12.258;2022-11-20T14:29:18;4.50;5.10
1680;DHT22;838;51.794;12.258;2022-11-20T14:31:46;4.40;5.20
1680;DHT22;838;51.794;12.258;2022-11-20T14:34:30;4.10;6.40
1680;DHT22;838;51.794;12.258;2022-11-20T14:36:59;4.10;7.20
1680;DHT22;838;51.794;12.258;2022-11-20T14:41:55;4.20;7.10
1680;DHT22;838;51.794;12.258;2022-11-20T14:44:25;4.20;7.20
1680;DHT22;838;51.794;12.258;2022-11-20T14:46:52;4.00;8.40
1680;DHT22;838;51.794;12.258;2022-11-20T14:49:19;3.90;8.70
1680;DHT22;838;51.794;12.258;2022-11-20T14:51:45;3.90;8.70
1680;DHT22;838;51.794;12.258;2022-11-20T14:54:15;3.70;9.80
1680;DHT22;838;51.794;12.258;2022-11-20T14:56:42;3.60;9.40
1680;DHT22;838;51.794;12.258;2022-11-20T14:59:23;3.50;9.90
1680;DHT22;838;51.794;12.258;2022-11-20T15:02:08;3.30;10.90
1680;DHT22;838;51.794;12.258;2022-11-20T15:04:47;3.10;12.20
1680;DHT22;838;51.794;12.258;2022-11-20T15:07:28;3.00;12.20
1680;DHT22;838;51.794;12.258;2022-11-20T15:10:05;2.90;13.00
1680;DHT22;838;51.794;12.258;2022-11-20T15:12:37;2.80;13.10
1680;DHT22;838;51.794;12.258;2022-11-20T15:15:04;2.60;14.20
1680;DHT22;838;51.794;12.258;2022-11-20T15:17:32;2.50;14.50
1680;DHT22;838;51.794;12.258;2022-11-20T15:19:59;2.40;15.30
1680;DHT22;838;51.794;12.258;2022-11-20T15:22:26;2.40;16.00
1680;DHT22;838;51.794;12.258;2022-11-20T15:24:52;2.30;16.20
1680;DHT22;838;51.794;12.258;2022-11-20T15:27:18;2.30;17.10
1680;DHT22;838;51.794;12.258;2022-11-20T15:29:43;2.20;17.90
1680;DHT22;838;51.794;12.258;2022-11-20T15:32:09;2.10;18.50
1680;DHT22;838;51.794;12.258;2022-11-20T15:34:35;2.10;19.10
1680;DHT22;838;51.794;12.258;2022-11-20T15:37:01;2.10;19.40
1680;DHT22;838;51.794;12.258;2022-11-20T15:39:26;2.00;20.60
1680;DHT22;838;51.794;12.258;2022-11-20T15:41:52;2.00;20.60
1680;DHT22;838;51.794;12.258;2022-11-20T15:44:18;2.00;21.40
1680;DHT22;838;51.794;12.258;2022-11-20T15:46:44;2.00;21.80
1680;DHT22;838;51.794;12.258;2022-11-20T15:49:16;1.90;22.60
1680;DHT22;838;51.794;12.258;2022-11-20T15:51:47;2.00;22.20
1680;DHT22;838;51.794;12.258;2022-11-20T15:54:20;2.00;22.70
1680;DHT22;838;51.794;12.258;2022-11-20T15:56:47;2.00;22.30
1680;DHT22;838;51.794;12.258;2022-11-20T15:59:13;1.90;22.80
1680;DHT22;838;51.794;12.258;2022-11-20T16:01:42;1.90;23.10
1680;DHT22;838;51.794;12.258;2022-11-20T16:04:13;1.80;23.70
1680;DHT22;838;51.794;12.258;2022-11-20T16:06:40;1.80;24.00
1680;DHT22;838;51.794;12.258;2022-11-20T16:09:06;1.80;24.00
1680;DHT22;838;51.794;12.258;2022-11-20T16:11:32;1.70;23.90
1680;DHT22;838;51.794;12.258;2022-11-20T16:13:59;1.60;24.50
1680;DHT22;838;51.794;12.258;2022-11-20T16:16:43;1.60;24.70
1680;DHT22;838;51.794;12.258;2022-11-20T16:19:12;1.80;24.40
1680;DHT22;838;51.794;12.258;2022-11-20T16:21:38;1.80;23.80
1680;DHT22;838;51.794;12.258;2022-11-20T16:24:09;2.00;23.00
1680;DHT22;838;51.794;12.258;2022-11-20T16:26:35;1.80;23.30
1680;DHT22;838;51.794;12.258;2022-11-20T16:29:03;1.80;23.10
1680;DHT22;838;51.794;12.258;2022-11-20T16:31:29;1.90;23.00
1680;DHT22;838;51.794;12.258;2022-11-20T16:33:56;1.90;22.50
1680;DHT22;838;51.794;12.258;2022-11-20T16:36:24;2.00;22.60
1680;DHT22;838;51.794;12.258;2022-11-20T16:41:20;2.10;21.50
1680;DHT22;838;51.794;12.258;2022-11-20T16:43:54;2.10;21.30
1680;DHT22;838;51.794;12.258;2022-11-20T16:46:22;1.90;21.00
1680;DHT22;838;51.794;12.258;2022-11-20T16:48:59;1.90;21.50
1680;DHT22;838;51.794;12.258;2022-11-20T16:51:26;1.80;21.80
1680;DHT22;838;51.794;12.258;2022-11-20T16:53:52;1.80;22.40
1680;DHT22;838;51.794;12.258;2022-11-20T16:56:22;1.70;22.90
1680;DHT22;838;51.794;12.258;2022-11-20T16:58:49;1.70;22.70
1680;DHT22;838;51.794;12.258;2022-11-20T17:01:18;1.70;22.90
1680;DHT22;838;51.794;12.258;2022-11-20T17:03:59;1.70;23.20
1680;DHT22;838;51.794;12.258;2022-11-20T17:06:31;1.70;22.70
1680;DHT22;838;51.794;12.258;2022-11-20T17:09:00;1.70;22.50
1680;DHT22;838;51.794;12.258;2022-11-20T17:11:27;1.60;22.10
1680;DHT22;838;51.794;12.258;2022-11-20T17:13:59;1.60;22.80
1680;DHT22;838;51.794;12.258;2022-11-20T17:16:27;1.50;22.70
1680;DHT22;838;51.794;12.258;2022-11-20T17:18:57;1.40;22.50
1680;DHT22;838;51.794;12.258;2022-11-20T17:21:24;1.40;22.70
1680;DHT22;838;51.794;12.258;2022-11-20T17:24:02;1.20;22.90
1680;DHT22;838;51.794;12.258;2022-11-20T17:26:29;1.10;23.90
1680;DHT22;838;51.794;12.258;2022-11-20T17:29:02;1.00;24.20
1680;DHT22;838;51.794;12.258;2022-11-20T17:31:33;1.00;24.40
1680;DHT22;838;51.794;12.258;2022-11-20T17:34:02;1.10;24.40
1680;DHT22;838;51.794;12.258;2022-11-20T17:36:28;1.20;23.70
1680;DHT22;838;51.794;12.258;2022-11-20T17:39:02;1.20;23.10
1680;DHT22;838;51.794;12.258;2022-11-20T17:41:40;1.10;22.90
1680;DHT22;838;51.794;12.258;2022-11-20T17:44:09;1.10;23.50
1680;DHT22;838;51.794;12.258;2022-11-20T17:46:36;1.10;23.10
1680;DHT22;838;51.794;12.258;2022-11-20T17:49:11;1.00;23.80
1680;DHT22;838;51.794;12.258;2022-11-20T17:51:37;1.00;24.10
1680;DHT22;838;51.794;12.258;2022-11-20T17:54:05;0.80;24.30
1680;DHT22;838;51.794;12.258;2022-11-20T17:56:40;0.70;25.40
1680;DHT22;838;51.794;12.258;2022-11-20T17:59:25;0.70;25.80
1680;DHT22;838;51.794;12.258;2022-11-20T18:01:54;0.70;25.80
1680;DHT22;838;51.794;12.258;2022-11-20T18:04:35;0.80;26.10
1680;DHT22;838;51.794;12.258;2022-11-20T18:07:22;0.70;25.70
1680;DHT22;838;51.794;12.258;2022-11-20T18:09:50;0.70;26.60
1680;DHT22;838;51.794;12.258;2022-11-20T18:12:16;0.60;27.30
1680;DHT22;838;51.794;12.258;2022-11-20T18:14:47;0.60;27.80